sensor_id;sensor_type;location;lat;lon;timestamp;P1;durP1;ratioP1;P2;durP2;ratioP2
30505;SDS011;17292;51.600;4.994;2023-07-08T00:00:52;8.20;;;6.95;;
30505;SDS011;17292;51.600;4.994;2023-07-08T00:03:19;12.45;;;7.07;;
30505;SDS011;17292;51.600;4.994;2023-07-08T00:05:46;9.60;;;6.68;;
30505;SDS011;17292;51.600;4.994;2023-07-08T00:08:13;10.35;;;7.57;;
30505;SDS011;17292;51.600;4.994;2023-07-08T00:10:39;9.23;;;7.45;;
30505;SDS011;17292;51.600;4.994;2023-07-08T00:13:05;10.23;;;7.88;;
30505;SDS011;17292;51.600;4.994;2023-07-08T00:15:32;7.97;;;7.07;;
30505;SDS011;17292;51.600;4.994;2023-07-08T00:18:01;11.88;;;7.80;;
30505;SDS011;17292;51.600;4.994;2023-07-08T00:22:55;10.85;;;7.68;;
30505;SDS011;17292;51.600;4.994;2023-07-08T00:25:22;9.25;;;7.50;;
30505;SDS011;17292;51.600;4.994;2023-07-08T00:27:48;8.38;;;7.13;;
30505;SDS011;17292;51.600;4.994;2023-07-08T00:30:32;10.05;;;7.00;;
30505;SDS011;17292;51.600;4.994;2023-07-08T00:32:59;9.25;;;7.53;;
30505;SDS011;17292;51.600;4.994;2023-07-08T00:37:59;8.30;;;7.15;;
30505;SDS011;17292;51.600;4.994;2023-07-08T00:40:32;10.82;;;7.90;;
30505;SDS011;17292;51.600;4.994;2023-07-08T00:42:59;8.88;;;7.70;;
30505;SDS011;17292;51.600;4.994;2023-07-08T00:48:00;8.98;;;7.82;;
30505;SDS011;17292;51.600;4.994;2023-07-08T00:50:28;8.32;;;7.45;;
30505;SDS011;17292;51.600;4.994;2023-07-08T00:55:39;9.88;;;7.78;;
30505;SDS011;17292;51.600;4.994;2023-07-08T00:58:05;9.93;;;8.07;;
30505;SDS011;17292;51.600;4.994;2023-07-08T01:00:32;8.57;;;7.03;;
30505;SDS011;17292;51.600;4.994;2023-07-08T01:02:58;9.57;;;7.75;;
30505;SDS011;17292;51.600;4.994;2023-07-08T01:05:25;9.80;;;8.13;;
30505;SDS011;17292;51.600;4.994;2023-07-08T01:07:54;7.93;;;7.13;;
30505;SDS011;17292;51.600;4.994;2023-07-08T01:10:24;8.48;;;7.45;;
30505;SDS011;17292;51.600;4.994;2023-07-08T01:12:54;10.00;;;7.72;;
30505;SDS011;17292;51.600;4.994;2023-07-08T01:15:21;9.90;;;7.43;;
30505;SDS011;17292;51.600;4.994;2023-07-08T01:17:49;8.23;;;7.40;;
30505;SDS011;17292;51.600;4.994;2023-07-08T01:20:18;7.70;;;6.90;;
30505;SDS011;17292;51.600;4.994;2023-07-08T01:22:45;8.05;;;7.28;;
30505;SDS011;17292;51.600;4.994;2023-07-08T01:25:11;8.07;;;7.28;;
30505;SDS011;17292;51.600;4.994;2023-07-08T01:27:40;7.85;;;7.15;;
30505;SDS011;17292;51.600;4.994;2023-07-08T01:30:08;8.95;;;7.40;;
30505;SDS011;17292;51.600;4.994;2023-07-08T01:32:36;9.38;;;7.43;;
30505;SDS011;17292;51.600;4.994;2023-07-08T01:35:03;8.93;;;7.78;;
30505;SDS011;17292;51.600;4.994;2023-07-08T01:37:44;8.15;;;7.30;;
30505;SDS011;17292;51.600;4.994;2023-07-08T01:40:32;8.18;;;7.40;;
30505;SDS011;17292;51.600;4.994;2023-07-08T01:42:59;11.30;;;8.02;;
30505;SDS011;17292;51.600;4.994;2023-07-08T01:45:27;9.20;;;7.30;;
30505;SDS011;17292;51.600;4.994;2023-07-08T01:48:05;8.18;;;7.20;;
30505;SDS011;17292;51.600;4.994;2023-07-08T01:50:32;9.60;;;7.43;;
30505;SDS011;17292;51.600;4.994;2023-07-08T01:53:00;8.57;;;7.43;;
30505;SDS011;17292;51.600;4.994;2023-07-08T01:55:28;10.32;;;8.05;;
30505;SDS011;17292;51.600;4.994;2023-07-08T01:57:55;9.73;;;7.55;;
30505;SDS011;17292;51.600;4.994;2023-07-08T02:00:21;8.50;;;7.53;;
30505;SDS011;17292;51.600;4.994;2023-07-08T02:02:48;8.43;;;7.53;;
30505;SDS011;17292;51.600;4.994;2023-07-08T02:05:14;7.60;;;6.90;;
30505;SDS011;17292;51.600;4.994;2023-07-08T02:07:41;10.77;;;8.00;;
30505;SDS011;17292;51.600;4.994;2023-07-08T02:10:07;9.20;;;7.68;;
30505;SDS011;17292;51.600;4.994;2023-07-08T02:12:33;8.27;;;7.47;;
30505;SDS011;17292;51.600;4.994;2023-07-08T02:15:00;9.02;;;7.10;;
30505;SDS011;17292;51.600;4.994;2023-07-08T02:17:26;7.88;;;6.72;;
30505;SDS011;17292;51.600;4.994;2023-07-08T02:19:55;8.80;;;7.20;;
30505;SDS011;17292;51.600;4.994;2023-07-08T02:22:22;8.57;;;6.88;;
30505;SDS011;17292;51.600;4.994;2023-07-08T02:24:48;8.15;;;7.13;;
30505;SDS011;17292;51.600;4.994;2023-07-08T02:27:14;8.38;;;6.70;;
30505;SDS011;17292;51.600;4.994;2023-07-08T02:29:41;8.93;;;7.28;;
30505;SDS011;17292;51.600;4.994;2023-07-08T02:32:08;8.40;;;6.82;;
30505;SDS011;17292;51.600;4.994;2023-07-08T02:34:37;7.35;;;6.65;;
30505;SDS011;17292;51.600;4.994;2023-07-08T02:37:03;8.45;;;7.18;;
30505;SDS011;17292;51.600;4.994;2023-07-08T02:39:30;8.02;;;7.22;;
30505;SDS011;17292;51.600;4.994;2023-07-08T02:41:56;7.55;;;6.80;;
30505;SDS011;17292;51.600;4.994;2023-07-08T02:44:22;8.50;;;7.70;;
30505;SDS011;17292;51.600;4.994;2023-07-08T02:46:48;8.02;;;7.22;;
30505;SDS011;17292;51.600;4.994;2023-07-08T02:49:14;7.35;;;6.65;;
30505;SDS011;17292;51.600;4.994;2023-07-08T02:51:40;8.55;;;7.53;;
30505;SDS011;17292;51.600;4.994;2023-07-08T02:54:06;10.60;;;7.15;;
30505;SDS011;17292;51.600;4.994;2023-07-08T02:56:33;7.45;;;6.72;;
30505;SDS011;17292;51.600;4.994;2023-07-08T02:58:59;9.32;;;7.40;;
30505;SDS011;17292;51.600;4.994;2023-07-08T03:01:25;8.85;;;7.43;;
30505;SDS011;17292;51.600;4.994;2023-07-08T03:03:51;8.85;;;6.93;;
30505;SDS011;17292;51.600;4.994;2023-07-08T03:06:21;7.75;;;6.95;;
30505;SDS011;17292;51.600;4.994;2023-07-08T03:08:48;7.32;;;6.63;;
30505;SDS011;17292;51.600;4.994;2023-07-08T03:11:14;8.32;;;6.82;;
30505;SDS011;17292;51.600;4.994;2023-07-08T03:13:40;12.95;;;6.78;;
30505;SDS011;17292;51.600;4.994;2023-07-08T03:16:06;7.35;;;6.53;;
30505;SDS011;17292;51.600;4.994;2023-07-08T03:18:37;7.03;;;6.32;;
30505;SDS011;17292;51.600;4.994;2023-07-08T03:21:11;8.57;;;6.70;;
30505;SDS011;17292;51.600;4.994;2023-07-08T03:23:37;7.28;;;6.57;;
30505;SDS011;17292;51.600;4.994;2023-07-08T03:26:04;7.40;;;6.70;;
30505;SDS011;17292;51.600;4.994;2023-07-08T03:28:30;7.60;;;6.60;;
30505;SDS011;17292;51.600;4.994;2023-07-08T03:30:56;6.80;;;6.10;;
30505;SDS011;17292;51.600;4.994;2023-07-08T03:33:22;7.28;;;6.30;;
30505;SDS011;17292;51.600;4.994;2023-07-08T03:35:49;7.50;;;6.80;;
30505;SDS011;17292;51.600;4.994;2023-07-08T03:38:15;7.80;;;6.80;;
30505;SDS011;17292;51.600;4.994;2023-07-08T03:40:42;7.63;;;6.93;;
30505;SDS011;17292;51.600;4.994;2023-07-08T03:43:09;7.55;;;6.57;;
30505;SDS011;17292;51.600;4.994;2023-07-08T03:45:35;8.32;;;6.55;;
30505;SDS011;17292;51.600;4.994;2023-07-08T03:48:01;8.52;;;6.53;;
30505;SDS011;17292;51.600;4.994;2023-07-08T03:50:28;9.30;;;6.97;;
30505;SDS011;17292;51.600;4.994;2023-07-08T03:52:54;7.47;;;6.45;;
30505;SDS011;17292;51.600;4.994;2023-07-08T03:55:21;7.30;;;6.57;;
30505;SDS011;17292;51.600;4.994;2023-07-08T03:57:47;8.43;;;6.53;;
30505;SDS011;17292;51.600;4.994;2023-07-08T04:00:14;7.25;;;6.55;;
30505;SDS011;17292;51.600;4.994;2023-07-08T04:02:43;7.90;;;7.03;;
30505;SDS011;17292;51.600;4.994;2023-07-08T04:05:13;7.00;;;6.40;;
30505;SDS011;17292;51.600;4.994;2023-07-08T04:07:40;6.57;;;5.97;;
30505;SDS011;17292;51.600;4.994;2023-07-08T04:10:06;7.63;;;6.88;;
30505;SDS011;17292;51.600;4.994;2023-07-08T04:12:33;7.43;;;6.22;;
30505;SDS011;17292;51.600;4.994;2023-07-08T04:14:59;7.45;;;6.25;;
30505;SDS011;17292;51.600;4.994;2023-07-08T04:17:25;7.72;;;6.22;;
30505;SDS011;17292;51.600;4.994;2023-07-08T04:19:51;7.07;;;6.32;;
30505;SDS011;17292;51.600;4.994;2023-07-08T04:22:17;7.10;;;6.10;;
30505;SDS011;17292;51.600;4.994;2023-07-08T04:24:44;6.75;;;5.97;;
30505;SDS011;17292;51.600;4.994;2023-07-08T04:27:13;6.60;;;6.00;;
30505;SDS011;17292;51.600;4.994;2023-07-08T04:29:40;7.65;;;6.47;;
30505;SDS011;17292;51.600;4.994;2023-07-08T04:32:06;6.68;;;6.00;;
30505;SDS011;17292;51.600;4.994;2023-07-08T04:34:33;7.65;;;6.22;;
30505;SDS011;17292;51.600;4.994;2023-07-08T04:36:59;7.07;;;6.10;;
30505;SDS011;17292;51.600;4.994;2023-07-08T04:39:26;6.78;;;6.18;;
30505;SDS011;17292;51.600;4.994;2023-07-08T04:41:53;6.68;;;6.07;;
30505;SDS011;17292;51.600;4.994;2023-07-08T04:44:19;6.70;;;6.10;;
30505;SDS011;17292;51.600;4.994;2023-07-08T04:46:46;7.03;;;5.80;;
30505;SDS011;17292;51.600;4.994;2023-07-08T04:49:13;7.28;;;6.65;;
30505;SDS011;17292;51.600;4.994;2023-07-08T04:51:40;7.78;;;6.97;;
30505;SDS011;17292;51.600;4.994;2023-07-08T04:54:06;7.30;;;6.60;;
30505;SDS011;17292;51.600;4.994;2023-07-08T04:56:34;8.93;;;6.50;;
30505;SDS011;17292;51.600;4.994;2023-07-08T04:59:01;7.57;;;6.50;;
30505;SDS011;17292;51.600;4.994;2023-07-08T05:01:28;7.35;;;6.50;;
30505;SDS011;17292;51.600;4.994;2023-07-08T05:03:54;7.45;;;6.68;;
30505;SDS011;17292;51.600;4.994;2023-07-08T05:06:20;9.73;;;6.78;;
30505;SDS011;17292;51.600;4.994;2023-07-08T05:08:46;6.93;;;6.25;;
30505;SDS011;17292;51.600;4.994;2023-07-08T05:11:13;7.05;;;6.35;;
30505;SDS011;17292;51.600;4.994;2023-07-08T05:13:39;7.18;;;6.45;;
30505;SDS011;17292;51.600;4.994;2023-07-08T05:16:05;7.50;;;6.80;;
30505;SDS011;17292;51.600;4.994;2023-07-08T05:18:31;7.13;;;6.43;;
30505;SDS011;17292;51.600;4.994;2023-07-08T05:20:57;8.27;;;6.72;;
30505;SDS011;17292;51.600;4.994;2023-07-08T05:23:23;6.68;;;6.07;;
30505;SDS011;17292;51.600;4.994;2023-07-08T05:25:50;6.55;;;5.95;;
30505;SDS011;17292;51.600;4.994;2023-07-08T05:28:16;6.88;;;6.25;;
30505;SDS011;17292;51.600;4.994;2023-07-08T05:30:42;6.53;;;6.03;;
30505;SDS011;17292;51.600;4.994;2023-07-08T05:33:08;7.57;;;6.35;;
30505;SDS011;17292;51.600;4.994;2023-07-08T05:35:35;7.22;;;6.45;;
30505;SDS011;17292;51.600;4.994;2023-07-08T05:38:01;6.70;;;6.00;;
30505;SDS011;17292;51.600;4.994;2023-07-08T05:40:27;7.63;;;6.00;;
30505;SDS011;17292;51.600;4.994;2023-07-08T05:42:53;7.10;;;6.30;;
30505;SDS011;17292;51.600;4.994;2023-07-08T05:45:19;7.60;;;6.60;;
30505;SDS011;17292;51.600;4.994;2023-07-08T05:47:46;6.70;;;6.07;;
30505;SDS011;17292;51.600;4.994;2023-07-08T05:50:12;6.72;;;6.13;;
30505;SDS011;17292;51.600;4.994;2023-07-08T05:52:38;7.10;;;6.40;;
30505;SDS011;17292;51.600;4.994;2023-07-08T05:55:04;7.75;;;6.38;;
30505;SDS011;17292;51.600;4.994;2023-07-08T05:57:30;7.55;;;6.78;;
30505;SDS011;17292;51.600;4.994;2023-07-08T05:59:57;7.25;;;6.07;;
30505;SDS011;17292;51.600;4.994;2023-07-08T06:02:23;6.85;;;6.15;;
30505;SDS011;17292;51.600;4.994;2023-07-08T06:04:51;7.13;;;6.40;;
30505;SDS011;17292;51.600;4.994;2023-07-08T06:07:17;6.60;;;6.00;;
30505;SDS011;17292;51.600;4.994;2023-07-08T06:09:43;7.03;;;6.28;;
30505;SDS011;17292;51.600;4.994;2023-07-08T06:12:10;7.60;;;6.82;;
30505;SDS011;17292;51.600;4.994;2023-07-08T06:14:36;7.63;;;6.63;;
30505;SDS011;17292;51.600;4.994;2023-07-08T06:17:03;8.10;;;6.72;;
30505;SDS011;17292;51.600;4.994;2023-07-08T06:19:30;6.70;;;6.10;;
30505;SDS011;17292;51.600;4.994;2023-07-08T06:21:56;7.30;;;6.60;;
30505;SDS011;17292;51.600;4.994;2023-07-08T06:24:23;6.80;;;6.20;;
30505;SDS011;17292;51.600;4.994;2023-07-08T06:26:49;8.35;;;6.55;;
30505;SDS011;17292;51.600;4.994;2023-07-08T06:29:15;7.35;;;6.70;;
30505;SDS011;17292;51.600;4.994;2023-07-08T06:31:41;6.93;;;6.28;;
30505;SDS011;17292;51.600;4.994;2023-07-08T06:34:07;7.18;;;6.50;;
30505;SDS011;17292;51.600;4.994;2023-07-08T06:36:33;7.03;;;6.40;;
30505;SDS011;17292;51.600;4.994;2023-07-08T06:39:00;7.00;;;6.40;;
30505;SDS011;17292;51.600;4.994;2023-07-08T06:41:28;7.18;;;6.47;;
30505;SDS011;17292;51.600;4.994;2023-07-08T06:43:54;7.18;;;6.18;;
30505;SDS011;17292;51.600;4.994;2023-07-08T06:46:20;7.38;;;6.47;;
30505;SDS011;17292;51.600;4.994;2023-07-08T06:48:46;6.60;;;6.10;;
30505;SDS011;17292;51.600;4.994;2023-07-08T06:51:12;6.47;;;5.88;;
30505;SDS011;17292;51.600;4.994;2023-07-08T06:53:38;6.88;;;6.18;;
30505;SDS011;17292;51.600;4.994;2023-07-08T06:56:04;6.97;;;6.38;;
30505;SDS011;17292;51.600;4.994;2023-07-08T06:58:31;6.55;;;6.00;;
30505;SDS011;17292;51.600;4.994;2023-07-08T07:00:57;7.07;;;6.38;;
30505;SDS011;17292;51.600;4.994;2023-07-08T07:03:23;6.55;;;5.95;;
30505;SDS011;17292;51.600;4.994;2023-07-08T07:05:49;6.70;;;6.10;;
30505;SDS011;17292;51.600;4.994;2023-07-08T07:08:15;6.57;;;5.97;;
30505;SDS011;17292;51.600;4.994;2023-07-08T07:10:41;6.63;;;6.03;;
30505;SDS011;17292;51.600;4.994;2023-07-08T07:13:08;6.95;;;6.28;;
30505;SDS011;17292;51.600;4.994;2023-07-08T07:15:34;6.38;;;5.82;;
30505;SDS011;17292;51.600;4.994;2023-07-08T07:18:00;6.90;;;6.28;;
30505;SDS011;17292;51.600;4.994;2023-07-08T07:20:27;6.47;;;5.88;;
30505;SDS011;17292;51.600;4.994;2023-07-08T07:22:54;6.72;;;6.13;;
30505;SDS011;17292;51.600;4.994;2023-07-08T07:25:20;6.60;;;6.03;;
30505;SDS011;17292;51.600;4.994;2023-07-08T07:27:46;6.72;;;6.10;;
30505;SDS011;17292;51.600;4.994;2023-07-08T07:30:12;7.15;;;6.32;;
30505;SDS011;17292;51.600;4.994;2023-07-08T07:32:43;6.97;;;6.28;;
30505;SDS011;17292;51.600;4.994;2023-07-08T07:35:10;7.05;;;6.35;;
30505;SDS011;17292;51.600;4.994;2023-07-08T07:37:38;7.35;;;6.40;;
30505;SDS011;17292;51.600;4.994;2023-07-08T07:40:06;9.35;;;6.40;;
30505;SDS011;17292;51.600;4.994;2023-07-08T07:42:37;6.55;;;5.95;;
30505;SDS011;17292;51.600;4.994;2023-07-08T07:45:03;6.45;;;5.90;;
30505;SDS011;17292;51.600;4.994;2023-07-08T07:47:29;6.80;;;6.20;;
30505;SDS011;17292;51.600;4.994;2023-07-08T07:49:56;6.30;;;5.80;;
30505;SDS011;17292;51.600;4.994;2023-07-08T07:52:22;6.47;;;5.97;;
30505;SDS011;17292;51.600;4.994;2023-07-08T07:54:49;7.10;;;6.40;;
30505;SDS011;17292;51.600;4.994;2023-07-08T07:57:16;6.30;;;5.78;;
30505;SDS011;17292;51.600;4.994;2023-07-08T07:59:42;6.68;;;5.80;;
30505;SDS011;17292;51.600;4.994;2023-07-08T08:02:08;6.93;;;6.43;;
30505;SDS011;17292;51.600;4.994;2023-07-08T08:04:36;6.82;;;6.22;;
30505;SDS011;17292;51.600;4.994;2023-07-08T08:07:03;6.90;;;6.35;;
30505;SDS011;17292;51.600;4.994;2023-07-08T08:09:29;8.32;;;6.40;;
30505;SDS011;17292;51.600;4.994;2023-07-08T08:11:55;6.90;;;6.20;;
30505;SDS011;17292;51.600;4.994;2023-07-08T08:14:21;8.18;;;6.43;;
30505;SDS011;17292;51.600;4.994;2023-07-08T08:16:47;6.80;;;6.18;;
30505;SDS011;17292;51.600;4.994;2023-07-08T08:19:14;6.90;;;6.28;;
30505;SDS011;17292;51.600;4.994;2023-07-08T08:21:40;8.02;;;6.30;;
30505;SDS011;17292;51.600;4.994;2023-07-08T08:24:06;7.25;;;6.55;;
30505;SDS011;17292;51.600;4.994;2023-07-08T08:26:32;8.10;;;6.95;;
30505;SDS011;17292;51.600;4.994;2023-07-08T08:28:58;7.03;;;6.32;;
30505;SDS011;17292;51.600;4.994;2023-07-08T08:31:24;6.97;;;6.32;;
30505;SDS011;17292;51.600;4.994;2023-07-08T08:33:51;7.43;;;6.72;;
30505;SDS011;17292;51.600;4.994;2023-07-08T08:36:17;6.55;;;6.03;;
30505;SDS011;17292;51.600;4.994;2023-07-08T08:38:43;6.95;;;6.35;;
30505;SDS011;17292;51.600;4.994;2023-07-08T08:41:13;6.43;;;5.82;;
30505;SDS011;17292;51.600;4.994;2023-07-08T08:43:40;6.72;;;6.18;;
30505;SDS011;17292;51.600;4.994;2023-07-08T08:48:55;7.40;;;6.72;;
30505;SDS011;17292;51.600;4.994;2023-07-08T08:51:22;6.88;;;6.28;;
30505;SDS011;17292;51.600;4.994;2023-07-08T08:53:50;8.48;;;6.53;;
30505;SDS011;17292;51.600;4.994;2023-07-08T08:56:20;7.57;;;6.78;;
30505;SDS011;17292;51.600;4.994;2023-07-08T09:01:18;7.70;;;6.85;;
30505;SDS011;17292;51.600;4.994;2023-07-08T09:03:54;7.20;;;6.50;;
30505;SDS011;17292;51.600;4.994;2023-07-08T09:08:48;7.68;;;6.75;;
30505;SDS011;17292;51.600;4.994;2023-07-08T09:13:54;7.30;;;6.57;;
30505;SDS011;17292;51.600;4.994;2023-07-08T09:19:00;7.47;;;6.78;;
30505;SDS011;17292;51.600;4.994;2023-07-08T09:21:59;7.40;;;6.70;;
30505;SDS011;17292;51.600;4.994;2023-07-08T09:26:44;7.32;;;6.53;;
30505;SDS011;17292;51.600;4.994;2023-07-08T09:29:11;7.90;;;7.20;;
30505;SDS011;17292;51.600;4.994;2023-07-08T09:31:38;7.07;;;6.43;;
30505;SDS011;17292;51.600;4.994;2023-07-08T09:36:38;7.28;;;6.68;;
30505;SDS011;17292;51.600;4.994;2023-07-08T09:39:05;7.63;;;7.00;;
30505;SDS011;17292;51.600;4.994;2023-07-08T09:41:35;7.40;;;6.78;;
30505;SDS011;17292;51.600;4.994;2023-07-08T09:44:13;7.47;;;6.78;;
30505;SDS011;17292;51.600;4.994;2023-07-08T09:46:40;8.07;;;7.28;;
30505;SDS011;17292;51.600;4.994;2023-07-08T09:49:16;7.35;;;6.65;;
30505;SDS011;17292;51.600;4.994;2023-07-08T09:51:44;7.60;;;7.00;;
30505;SDS011;17292;51.600;4.994;2023-07-08T09:54:10;7.35;;;6.72;;
30505;SDS011;17292;51.600;4.994;2023-07-08T09:56:40;7.28;;;6.68;;
30505;SDS011;17292;51.600;4.994;2023-07-08T09:59:10;7.38;;;6.68;;
30505;SDS011;17292;51.600;4.994;2023-07-08T10:01:37;7.45;;;6.80;;
30505;SDS011;17292;51.600;4.994;2023-07-08T10:04:04;7.35;;;6.75;;
30505;SDS011;17292;51.600;4.994;2023-07-08T10:06:30;7.53;;;6.82;;
30505;SDS011;17292;51.600;4.994;2023-07-08T10:09:02;7.57;;;6.63;;
30505;SDS011;17292;51.600;4.994;2023-07-08T10:11:30;7.63;;;6.93;;
30505;SDS011;17292;51.600;4.994;2023-07-08T10:13:57;8.15;;;7.28;;
30505;SDS011;17292;51.600;4.994;2023-07-08T10:16:26;7.60;;;6.75;;
30505;SDS011;17292;51.600;4.994;2023-07-08T10:18:53;7.47;;;6.78;;
30505;SDS011;17292;51.600;4.994;2023-07-08T10:23:51;7.57;;;6.88;;
30505;SDS011;17292;51.600;4.994;2023-07-08T10:26:30;7.88;;;7.07;;
30505;SDS011;17292;51.600;4.994;2023-07-08T10:34:29;8.32;;;7.43;;
30505;SDS011;17292;51.600;4.994;2023-07-08T10:39:55;7.40;;;6.78;;
30505;SDS011;17292;51.600;4.994;2023-07-08T10:45:26;8.30;;;7.50;;
30505;SDS011;17292;51.600;4.994;2023-07-08T10:53:17;7.90;;;7.20;;
30505;SDS011;17292;51.600;4.994;2023-07-08T10:56:01;8.00;;;7.20;;
30505;SDS011;17292;51.600;4.994;2023-07-08T11:08:25;8.45;;;7.75;;
30505;SDS011;17292;51.600;4.994;2023-07-08T11:13:20;8.35;;;7.60;;
30505;SDS011;17292;51.600;4.994;2023-07-08T11:18:17;8.40;;;7.60;;
30505;SDS011;17292;51.600;4.994;2023-07-08T11:26:03;8.57;;;7.85;;
30505;SDS011;17292;51.600;4.994;2023-07-08T11:28:30;8.43;;;7.43;;
30505;SDS011;17292;51.600;4.994;2023-07-08T11:30:56;8.32;;;7.60;;
30505;SDS011;17292;51.600;4.994;2023-07-08T11:33:24;7.90;;;7.30;;
30505;SDS011;17292;51.600;4.994;2023-07-08T11:35:52;8.48;;;7.68;;
30505;SDS011;17292;51.600;4.994;2023-07-08T11:38:21;8.40;;;7.65;;
30505;SDS011;17292;51.600;4.994;2023-07-08T11:40:52;8.60;;;7.90;;
30505;SDS011;17292;51.600;4.994;2023-07-08T11:43:19;10.05;;;8.90;;
30505;SDS011;17292;51.600;4.994;2023-07-08T11:45:46;9.65;;;8.75;;
30505;SDS011;17292;51.600;4.994;2023-07-08T11:50:49;8.70;;;8.00;;
30505;SDS011;17292;51.600;4.994;2023-07-08T11:58:59;9.82;;;8.82;;
30505;SDS011;17292;51.600;4.994;2023-07-08T12:03:51;8.95;;;8.05;;
30505;SDS011;17292;51.600;4.994;2023-07-08T12:08:53;9.15;;;8.35;;
30505;SDS011;17292;51.600;4.994;2023-07-08T12:11:20;8.85;;;8.15;;
30505;SDS011;17292;51.600;4.994;2023-07-08T12:13:50;9.35;;;8.55;;
30505;SDS011;17292;51.600;4.994;2023-07-08T12:16:16;9.18;;;8.45;;
30505;SDS011;17292;51.600;4.994;2023-07-08T12:18:43;9.00;;;8.27;;
30505;SDS011;17292;51.600;4.994;2023-07-08T12:21:11;10.57;;;9.52;;
30505;SDS011;17292;51.600;4.994;2023-07-08T12:23:43;9.55;;;8.65;;
30505;SDS011;17292;51.600;4.994;2023-07-08T12:26:10;9.27;;;8.45;;
30505;SDS011;17292;51.600;4.994;2023-07-08T12:28:36;10.00;;;9.00;;
30505;SDS011;17292;51.600;4.994;2023-07-08T12:31:04;9.50;;;8.70;;
30505;SDS011;17292;51.600;4.994;2023-07-08T12:33:33;10.52;;;9.48;;
30505;SDS011;17292;51.600;4.994;2023-07-08T12:36:02;9.70;;;8.80;;
30505;SDS011;17292;51.600;4.994;2023-07-08T12:39:03;10.32;;;9.40;;
30505;SDS011;17292;51.600;4.994;2023-07-08T12:41:23;10.88;;;9.77;;
30505;SDS011;17292;51.600;4.994;2023-07-08T12:43:50;9.82;;;8.90;;
30505;SDS011;17292;51.600;4.994;2023-07-08T12:46:17;10.18;;;9.18;;
30505;SDS011;17292;51.600;4.994;2023-07-08T12:48:44;11.43;;;9.75;;
30505;SDS011;17292;51.600;4.994;2023-07-08T12:51:15;10.05;;;9.15;;
30505;SDS011;17292;51.600;4.994;2023-07-08T12:53:42;10.63;;;9.73;;
30505;SDS011;17292;51.600;4.994;2023-07-08T12:56:08;10.70;;;9.70;;
30505;SDS011;17292;51.600;4.994;2023-07-08T12:58:37;10.40;;;9.38;;
30505;SDS011;17292;51.600;4.994;2023-07-08T13:01:05;10.25;;;9.35;;
30505;SDS011;17292;51.600;4.994;2023-07-08T13:03:36;11.18;;;10.10;;
30505;SDS011;17292;51.600;4.994;2023-07-08T13:06:03;10.10;;;9.30;;
30505;SDS011;17292;51.600;4.994;2023-07-08T13:08:30;10.27;;;9.38;;
30505;SDS011;17292;51.600;4.994;2023-07-08T13:11:00;9.85;;;8.85;;
30505;SDS011;17292;51.600;4.994;2023-07-08T13:13:30;10.52;;;9.63;;
30505;SDS011;17292;51.600;4.994;2023-07-08T13:15:57;10.70;;;9.63;;
30505;SDS011;17292;51.600;4.994;2023-07-08T13:18:31;10.80;;;9.82;;
30505;SDS011;17292;51.600;4.994;2023-07-08T13:20:58;10.40;;;9.40;;
30505;SDS011;17292;51.600;4.994;2023-07-08T13:23:25;10.07;;;9.07;;
30505;SDS011;17292;51.600;4.994;2023-07-08T13:25:52;10.15;;;9.25;;
30505;SDS011;17292;51.600;4.994;2023-07-08T13:28:29;10.38;;;9.40;;
30505;SDS011;17292;51.600;4.994;2023-07-08T13:30:59;9.45;;;8.65;;
30505;SDS011;17292;51.600;4.994;2023-07-08T13:33:30;9.90;;;9.02;;
30505;SDS011;17292;51.600;4.994;2023-07-08T13:35:56;10.20;;;9.30;;
30505;SDS011;17292;51.600;4.994;2023-07-08T13:38:23;10.65;;;9.70;;
30505;SDS011;17292;51.600;4.994;2023-07-08T13:40:56;9.65;;;8.75;;
30505;SDS011;17292;51.600;4.994;2023-07-08T13:43:26;9.90;;;9.02;;
30505;SDS011;17292;51.600;4.994;2023-07-08T13:45:53;11.10;;;10.07;;
30505;SDS011;17292;51.600;4.994;2023-07-08T13:51:08;10.60;;;9.55;;
30505;SDS011;17292;51.600;4.994;2023-07-08T13:53:43;11.32;;;10.15;;
30505;SDS011;17292;51.600;4.994;2023-07-08T13:56:12;10.50;;;9.45;;
30505;SDS011;17292;51.600;4.994;2023-07-08T13:58:41;10.23;;;9.20;;
30505;SDS011;17292;51.600;4.994;2023-07-08T14:01:11;10.73;;;9.70;;
30505;SDS011;17292;51.600;4.994;2023-07-08T14:03:40;10.35;;;9.35;;
30505;SDS011;17292;51.600;4.994;2023-07-08T14:06:11;10.43;;;9.38;;
30505;SDS011;17292;51.600;4.994;2023-07-08T14:08:38;10.95;;;9.88;;
30505;SDS011;17292;51.600;4.994;2023-07-08T14:11:04;11.20;;;10.10;;
30505;SDS011;17292;51.600;4.994;2023-07-08T14:13:30;11.43;;;10.32;;
30505;SDS011;17292;51.600;4.994;2023-07-08T14:15:56;11.40;;;10.15;;
30505;SDS011;17292;51.600;4.994;2023-07-08T14:18:22;10.15;;;9.25;;
30505;SDS011;17292;51.600;4.994;2023-07-08T14:20:49;12.68;;;10.32;;
30505;SDS011;17292;51.600;4.994;2023-07-08T14:23:15;11.13;;;10.07;;
30505;SDS011;17292;51.600;4.994;2023-07-08T14:25:42;10.38;;;9.48;;
30505;SDS011;17292;51.600;4.994;2023-07-08T14:28:09;10.60;;;9.70;;
30505;SDS011;17292;51.600;4.994;2023-07-08T14:30:35;11.40;;;10.40;;
30505;SDS011;17292;51.600;4.994;2023-07-08T14:33:04;10.88;;;9.93;;
30505;SDS011;17292;51.600;4.994;2023-07-08T14:35:31;11.15;;;10.05;;
30505;SDS011;17292;51.600;4.994;2023-07-08T14:37:57;11.18;;;10.10;;
30505;SDS011;17292;51.600;4.994;2023-07-08T14:42:57;10.82;;;9.93;;
30505;SDS011;17292;51.600;4.994;2023-07-08T14:45:24;11.38;;;10.27;;
30505;SDS011;17292;51.600;4.994;2023-07-08T14:47:51;10.57;;;9.55;;
30505;SDS011;17292;51.600;4.994;2023-07-08T14:50:17;10.70;;;9.70;;
30505;SDS011;17292;51.600;4.994;2023-07-08T14:52:43;10.57;;;9.57;;
30505;SDS011;17292;51.600;4.994;2023-07-08T14:55:09;11.32;;;10.25;;
30505;SDS011;17292;51.600;4.994;2023-07-08T14:57:40;10.80;;;9.80;;
30505;SDS011;17292;51.600;4.994;2023-07-08T15:00:10;10.95;;;10.05;;
30505;SDS011;17292;51.600;4.994;2023-07-08T15:02:36;10.95;;;9.85;;
30505;SDS011;17292;51.600;4.994;2023-07-08T15:05:08;11.73;;;10.63;;
30505;SDS011;17292;51.600;4.994;2023-07-08T15:07:34;10.70;;;9.75;;
30505;SDS011;17292;51.600;4.994;2023-07-08T15:10:00;12.13;;;11.00;;
30505;SDS011;17292;51.600;4.994;2023-07-08T15:12:27;10.88;;;9.95;;
30505;SDS011;17292;51.600;4.994;2023-07-08T15:14:53;10.68;;;9.68;;
30505;SDS011;17292;51.600;4.994;2023-07-08T15:17:19;10.82;;;9.85;;
30505;SDS011;17292;51.600;4.994;2023-07-08T15:19:45;11.30;;;10.20;;
30505;SDS011;17292;51.600;4.994;2023-07-08T15:22:11;11.48;;;10.45;;
30505;SDS011;17292;51.600;4.994;2023-07-08T15:24:37;10.57;;;9.68;;
30505;SDS011;17292;51.600;4.994;2023-07-08T15:27:03;11.38;;;10.38;;
30505;SDS011;17292;51.600;4.994;2023-07-08T15:29:30;11.48;;;10.38;;
30505;SDS011;17292;51.600;4.994;2023-07-08T15:31:57;10.45;;;9.52;;
30505;SDS011;17292;51.600;4.994;2023-07-08T15:34:23;11.85;;;10.73;;
30505;SDS011;17292;51.600;4.994;2023-07-08T15:36:49;11.50;;;10.40;;
30505;SDS011;17292;51.600;4.994;2023-07-08T15:39:15;11.32;;;10.32;;
30505;SDS011;17292;51.600;4.994;2023-07-08T15:41:42;11.90;;;10.80;;
30505;SDS011;17292;51.600;4.994;2023-07-08T15:44:09;11.32;;;10.35;;
30505;SDS011;17292;51.600;4.994;2023-07-08T15:46:36;11.15;;;10.15;;
30505;SDS011;17292;51.600;4.994;2023-07-08T15:49:22;11.55;;;10.48;;
30505;SDS011;17292;51.600;4.994;2023-07-08T15:51:48;11.00;;;9.98;;
30505;SDS011;17292;51.600;4.994;2023-07-08T15:54:15;11.63;;;10.57;;
30505;SDS011;17292;51.600;4.994;2023-07-08T15:56:41;11.38;;;10.35;;
30505;SDS011;17292;51.600;4.994;2023-07-08T15:59:10;11.68;;;10.68;;
30505;SDS011;17292;51.600;4.994;2023-07-08T16:01:37;11.20;;;10.20;;
30505;SDS011;17292;51.600;4.994;2023-07-08T16:04:05;12.48;;;10.05;;
30505;SDS011;17292;51.600;4.994;2023-07-08T16:06:31;11.30;;;10.30;;
30505;SDS011;17292;51.600;4.994;2023-07-08T16:08:57;11.18;;;10.20;;
30505;SDS011;17292;51.600;4.994;2023-07-08T16:11:27;11.43;;;10.32;;